Time;durP1;ratioP1;P1;durP2;ratioP2;P2;SDS_P1;SDS_P2;PMS_P1;PMS_P2;Temp;Humidity;BMP_temperature;BMP_pressure;BME280_temperature;BME280_humidity;BME280_pressure;Samples;Min_cycle;Max_cycle;Signal;HPM_P1;HPM_P2
2021/08/12 00:01:24;;;;;;;27.03;25.23;;;;;;;;;;5037068;28;20789;-89
2021/08/12 00:03:52;;;;;;;27.30;25.60;;;;;;;;;;5036486;28;20482;-89
2021/08/12 00:06:19;;;;;;;26.60;24.90;;;;;;;;;;5036407;28;20924;-88
2021/08/12 00:08:48;;;;;;;26.00;24.40;;;;;;;;;;5036113;28;20468;-89
2021/08/12 00:11:15;;;;;;;26.53;24.90;;;;;;;;;;5036069;28;20482;-89
2021/08/12 00:13:43;;;;;;;28.13;26.33;;;;;;;;;;5036183;28;20575;-89
2021/08/12 00:16:10;;;;;;;27.87;25.97;;;;;;;;;;5036111;28;20463;-89
2021/08/12 00:18:42;;;;;;;27.00;25.20;;;;;;;;;;5036439;28;20459;-89
2021/08/12 00:21:09;;;;;;;25.70;24.10;;;;;;;;;;5018741;28;20456;-89
2021/08/12 00:23:37;;;;;;;26.10;24.40;;;;;;;;;;5035955;28;20438;-89
2021/08/12 00:26:06;;;;;;;25.70;24.20;;;;;;;;;;5036098;28;20419;-88
2021/08/12 00:28:34;;;;;;;27.30;25.60;;;;;;;;;;5035912;28;20443;-89
2021/08/12 00:31:01;;;;;;;27.43;25.73;;;;;;;;;;5035998;28;20965;-89
2021/08/12 00:33:29;;;;;;;26.43;24.77;;;;;;;;;;5036062;28;20419;-88
2021/08/12 00:35:56;;;;;;;27.40;25.60;;;;;;;;;;5035786;28;20407;-89
2021/08/12 00:38:24;;;;;;;26.53;24.93;;;;;;;;;;5035955;28;20738;-89
2021/08/12 00:40:51;;;;;;;27.80;26.10;;;;;;;;;;5035814;28;20412;-89
2021/08/12 00:43:20;;;;;;;25.20;23.60;;;;;;;;;;5035907;28;20426;-88
2021/08/12 00:45:48;;;;;;;24.80;23.13;;;;;;;;;;5035562;28;20445;-89
2021/08/12 00:48:15;;;;;;;26.83;24.70;;;;;;;;;;5035583;28;20425;-89
2021/08/12 00:50:43;;;;;;;26.67;24.93;;;;;;;;;;5035666;28;20472;-89
2021/08/12 00:53:11;;;;;;;25.63;23.93;;;;;;;;;;5035737;28;20441;-89
2021/08/12 00:55:42;;;;;;;25.27;23.77;;;;;;;;;;5035310;28;20412;-88
2021/08/12 00:58:09;;;;;;;25.93;24.33;;;;;;;;;;5035551;28;20448;-88
2021/08/12 01:00:38;;;;;;;25.93;24.23;;;;;;;;;;5018063;28;20459;-89
2021/08/12 01:03:07;;;;;;;26.47;24.67;;;;;;;;;;5035662;28;20426;-89
2021/08/12 01:05:35;;;;;;;26.33;24.53;;;;;;;;;;5035448;28;20439;-89
2021/08/12 01:08:08;;;;;;;25.80;24.20;;;;;;;;;;5035054;28;20456;-89
2021/08/12 01:10:44;;;;;;;26.73;25.10;;;;;;;;;;5035192;28;20462;-89
2021/08/12 01:13:14;;;;;;;25.33;23.63;;;;;;;;;;5034851;28;20478;-88
2021/08/12 01:15:44;;;;;;;24.23;22.80;;;;;;;;;;5035350;28;20422;-89
2021/08/12 01:18:14;;;;;;;26.20;24.60;;;;;;;;;;5034840;28;20430;-89
2021/08/12 01:21:02;;;;;;;25.67;24.17;;;;;;;;;;5034908;28;20909;-89
2021/08/12 01:23:31;;;;;;;25.00;23.50;;;;;;;;;;5034999;28;20418;-89
2021/08/12 01:26:01;;;;;;;24.47;23.07;;;;;;;;;;5035338;28;20442;-89
2021/08/12 01:28:30;;;;;;;26.47;24.87;;;;;;;;;;5034670;28;20442;-89
2021/08/12 01:31:07;;;;;;;25.03;23.53;;;;;;;;;;5034971;28;20924;-88
2021/08/12 01:33:41;;;;;;;25.10;23.50;;;;;;;;;;5034713;28;20921;-89
2021/08/12 01:36:09;;;;;;;24.13;22.77;;;;;;;;;;5034666;28;20446;-89
2021/08/12 01:38:39;;;;;;;24.73;23.20;;;;;;;;;;5034832;28;20441;-89
2021/08/12 01:41:07;;;;;;;25.83;24.33;;;;;;;;;;5034786;28;20446;-89
2021/08/12 01:43:37;;;;;;;25.87;24.00;;;;;;;;;;5034881;28;20447;-89
2021/08/12 01:46:06;;;;;;;25.63;23.73;;;;;;;;;;5034677;28;20812;-89
2021/08/12 01:48:34;;;;;;;25.30;23.70;;;;;;;;;;5034589;28;20890;-88
2021/08/12 01:51:01;;;;;;;24.67;23.07;;;;;;;;;;5034408;28;20470;-88
2021/08/12 01:53:31;;;;;;;25.60;24.00;;;;;;;;;;5034379;28;20426;-89
2021/08/12 01:55:59;;;;;;;25.47;23.70;;;;;;;;;;5035466;28;20765;-89
2021/08/12 01:58:28;;;;;;;24.97;23.40;;;;;;;;;;5033814;28;20440;-89
2021/08/12 02:00:56;;;;;;;24.27;22.77;;;;;;;;;;5034585;28;20420;-89
2021/08/12 02:03:26;;;;;;;25.80;24.30;;;;;;;;;;5034377;28;20483;-89
2021/08/12 02:05:53;;;;;;;25.53;23.93;;;;;;;;;;5035358;28;20422;-89
2021/08/12 02:08:21;;;;;;;24.67;23.17;;;;;;;;;;5033964;28;20453;-89
2021/08/12 02:10:50;;;;;;;24.50;22.90;;;;;;;;;;5034320;28;20479;-89
2021/08/12 02:13:18;;;;;;;26.00;23.70;;;;;;;;;;5014416;28;20799;-89
2021/08/12 02:15:46;;;;;;;25.90;24.20;;;;;;;;;;5014396;28;20407;-88
2021/08/12 02:18:13;;;;;;;25.07;23.67;;;;;;;;;;5013289;28;20576;-89
2021/08/12 02:20:42;;;;;;;24.10;22.70;;;;;;;;;;5014781;28;20763;-88
2021/08/12 02:23:13;;;;;;;24.70;23.30;;;;;;;;;;5013568;28;20449;-89
2021/08/12 02:25:44;;;;;;;24.90;23.40;;;;;;;;;;5014524;28;20455;-89
2021/08/12 02:28:14;;;;;;;24.97;23.27;;;;;;;;;;5014319;28;20487;-88
2021/08/12 02:30:42;;;;;;;26.10;24.60;;;;;;;;;;5014294;28;20483;-89
2021/08/12 02:33:12;;;;;;;25.80;24.20;;;;;;;;;;5014303;28;20445;-89
2021/08/12 02:35:40;;;;;;;26.13;24.43;;;;;;;;;;5014157;28;20431;-89
2021/08/12 02:38:08;;;;;;;25.50;23.90;;;;;;;;;;5014484;28;20825;-89
2021/08/12 02:40:36;;;;;;;26.57;24.77;;;;;;;;;;5014067;28;20424;-89
2021/08/12 02:43:04;;;;;;;25.73;24.23;;;;;;;;;;5014593;28;20854;-89
2021/08/12 02:45:34;;;;;;;24.73;23.13;;;;;;;;;;5014984;28;20431;-89
2021/08/12 02:48:01;;;;;;;24.73;23.33;;;;;;;;;;5014167;28;20431;-88
2021/08/12 02:50:29;;;;;;;26.10;24.50;;;;;;;;;;5014253;28;20416;-88
2021/08/12 02:52:56;;;;;;;25.67;24.07;;;;;;;;;;5014194;28;20476;-89
2021/08/12 02:55:25;;;;;;;25.27;23.70;;;;;;;;;;5014080;28;20893;-88
2021/08/12 02:57:53;;;;;;;25.20;23.50;;;;;;;;;;5014319;28;20423;-88
2021/08/12 03:00:21;;;;;;;23.90;22.47;;;;;;;;;;5014039;28;20445;-89
2021/08/12 03:02:51;;;;;;;25.10;23.60;;;;;;;;;;5013901;28;20426;-88
2021/08/12 03:05:20;;;;;;;26.23;24.60;;;;;;;;;;5014175;28;20422;-89
2021/08/12 03:07:48;;;;;;;25.57;24.13;;;;;;;;;;5014141;28;20455;-88
2021/08/12 03:10:18;;;;;;;22.63;21.43;;;;;;;;;;5016536;28;20415;-88
2021/08/12 03:12:47;;;;;;;24.90;23.40;;;;;;;;;;5032627;28;20955;-88
2021/08/12 03:15:15;;;;;;;25.17;23.57;;;;;;;;;;5037171;28;20485;-88
2021/08/12 03:17:43;;;;;;;25.00;23.30;;;;;;;;;;5037201;28;20790;-88
2021/08/12 03:20:13;;;;;;;25.30;23.60;;;;;;;;;;5037217;28;20407;-88
2021/08/12 03:22:41;;;;;;;24.30;22.70;;;;;;;;;;5037631;28;20800;-88
2021/08/12 03:25:09;;;;;;;24.13;22.63;;;;;;;;;;5019914;28;20444;-88
2021/08/12 03:27:37;;;;;;;25.43;23.80;;;;;;;;;;5037313;28;20437;-89
2021/08/12 03:30:05;;;;;;;23.63;22.13;;;;;;;;;;5036984;28;20422;-88
2021/08/12 03:32:32;;;;;;;24.43;22.93;;;;;;;;;;5036736;28;20487;-88
2021/08/12 03:34:59;;;;;;;25.27;23.67;;;;;;;;;;5019566;28;20929;-88
2021/08/12 03:37:28;;;;;;;24.70;23.20;;;;;;;;;;5037114;28;20434;-88
2021/08/12 03:39:56;;;;;;;25.10;23.40;;;;;;;;;;5019255;28;20440;-88
2021/08/12 03:42:23;;;;;;;25.20;23.60;;;;;;;;;;5037030;28;20418;-88
2021/08/12 03:44:50;;;;;;;24.63;23.03;;;;;;;;;;5037217;28;20408;-88
2021/08/12 03:47:19;;;;;;;24.80;23.30;;;;;;;;;;5019235;28;20451;-87
2021/08/12 03:49:47;;;;;;;25.00;23.30;;;;;;;;;;5037518;28;20734;-89
2021/08/12 03:52:14;;;;;;;24.97;23.37;;;;;;;;;;5036646;28;20450;-89
2021/08/12 03:54:43;;;;;;;24.07;22.37;;;;;;;;;;5036513;28;20411;-88
2021/08/12 03:57:10;;;;;;;24.80;23.20;;;;;;;;;;5036581;28;20456;-88
2021/08/12 03:59:38;;;;;;;25.77;24.03;;;;;;;;;;5036221;28;20438;-88
2021/08/12 04:02:05;;;;;;;24.30;22.80;;;;;;;;;;5036407;28;20501;-88
2021/08/12 04:04:33;;;;;;;24.53;22.70;;;;;;;;;;5019208;28;20539;-88
2021/08/12 04:07:01;;;;;;;25.57;23.93;;;;;;;;;;5036393;28;20881;-88
2021/08/12 04:09:28;;;;;;;25.63;24.03;;;;;;;;;;5036353;28;20781;-88
2021/08/12 04:11:58;;;;;;;25.70;24.00;;;;;;;;;;5035983;28;20502;-88
2021/08/12 04:14:25;;;;;;;25.67;23.97;;;;;;;;;;5036492;28;20414;-89
2021/08/12 04:16:52;;;;;;;25.77;24.00;;;;;;;;;;5036419;28;20447;-91
2021/08/12 04:19:20;;;;;;;26.57;24.77;;;;;;;;;;5036381;28;20447;-88
2021/08/12 04:21:47;;;;;;;25.73;24.13;;;;;;;;;;5017949;28;20416;-89
2021/08/12 04:24:15;;;;;;;24.83;23.03;;;;;;;;;;5036696;28;20813;-89
2021/08/12 04:26:42;;;;;;;25.00;23.47;;;;;;;;;;5036058;28;20415;-88
2021/08/12 04:29:11;;;;;;;25.00;23.40;;;;;;;;;;5036055;28;20922;-88
2021/08/12 04:31:39;;;;;;;24.80;23.10;;;;;;;;;;5036181;28;20483;-91
2021/08/12 04:34:06;;;;;;;24.33;22.83;;;;;;;;;;5036090;28;20433;-87
2021/08/12 04:36:33;;;;;;;25.30;23.70;;;;;;;;;;5035960;28;20775;-93
2021/08/12 04:39:01;;;;;;;24.43;22.70;;;;;;;;;;5036025;28;20440;-91
2021/08/12 04:41:28;;;;;;;25.50;23.73;;;;;;;;;;5035751;28;20850;-90
2021/08/12 04:43:56;;;;;;;26.00;24.00;;;;;;;;;;5035984;28;20415;-90
2021/08/12 04:46:25;;;;;;;24.90;23.20;;;;;;;;;;5036102;28;20474;-95
2021/08/12 04:48:52;;;;;;;26.27;24.37;;;;;;;;;;5035476;28;20463;-94
2021/08/12 04:51:19;;;;;;;25.70;24.00;;;;;;;;;;5035501;28;20455;-94
2021/08/12 04:53:47;;;;;;;26.50;24.80;;;;;;;;;;5035503;28;20448;-93
2021/08/12 04:56:14;;;;;;;27.10;25.30;;;;;;;;;;5018257;28;20446;-92
2021/08/12 04:58:42;;;;;;;26.20;24.40;;;;;;;;;;5035388;28;20447;-94
2021/08/12 05:01:09;;;;;;;27.17;25.27;;;;;;;;;;5035427;28;20916;-93
2021/08/12 05:03:38;;;;;;;27.17;25.27;;;;;;;;;;5036327;28;20781;-92
2021/08/12 05:06:08;;;;;;;26.60;24.70;;;;;;;;;;5035442;28;20900;-92
2021/08/12 05:08:36;;;;;;;26.80;24.97;;;;;;;;;;5035397;28;20446;-92
2021/08/12 05:11:08;;;;;;;26.33;24.50;;;;;;;;;;5017370;28;20464;-93
2021/08/12 05:13:35;;;;;;;26.87;25.07;;;;;;;;;;5035244;28;20464;-95
2021/08/12 05:16:03;;;;;;;27.27;25.50;;;;;;;;;;5035392;28;20418;-93
2021/08/12 05:18:31;;;;;;;27.63;25.77;;;;;;;;;;5034901;28;20437;-93
2021/08/12 05:21:00;;;;;;;27.50;25.70;;;;;;;;;;5035236;28;20800;-93
2021/08/12 05:23:27;;;;;;;25.43;23.90;;;;;;;;;;5035276;28;20447;-93
2021/08/12 05:25:55;;;;;;;26.07;24.37;;;;;;;;;;5035126;28;20432;-92
2021/08/12 05:28:22;;;;;;;26.03;24.37;;;;;;;;;;5035057;28;20437;-92
2021/08/12 05:30:50;;;;;;;25.50;23.80;;;;;;;;;;5017503;28;20427;-93
2021/08/12 05:33:17;;;;;;;25.67;24.07;;;;;;;;;;5017768;28;20470;-93
2021/08/12 05:35:45;;;;;;;26.10;24.50;;;;;;;;;;5035063;28;20448;-93
2021/08/12 05:38:16;;;;;;;26.27;24.40;;;;;;;;;;5017662;28;20915;-93
2021/08/12 05:40:43;;;;;;;26.30;24.57;;;;;;;;;;5035368;28;20424;-95
2021/08/12 05:43:11;;;;;;;25.80;24.10;;;;;;;;;;5034620;28;20448;-95
2021/08/12 05:45:38;;;;;;;26.30;24.70;;;;;;;;;;5034805;28;20434;-95
2021/08/12 05:48:06;;;;;;;25.67;23.97;;;;;;;;;;5034544;28;20436;-96
2021/08/12 05:50:34;;;;;;;26.53;24.73;;;;;;;;;;5016990;28;20426;-96
2021/08/12 05:53:01;;;;;;;24.93;23.33;;;;;;;;;;5034698;28;20456;-94
2021/08/12 05:55:30;;;;;;;24.83;23.20;;;;;;;;;;5034369;28;20434;-96
2021/08/12 05:57:57;;;;;;;25.80;23.87;;;;;;;;;;5017481;28;20437;-94
2021/08/12 06:00:25;;;;;;;23.90;22.43;;;;;;;;;;5017944;28;20444;-96
2021/08/12 06:02:52;;;;;;;24.80;23.30;;;;;;;;;;5035256;28;20421;-96
2021/08/12 06:05:20;;;;;;;25.43;23.83;;;;;;;;;;5034941;28;20455;-96
2021/08/12 06:07:47;;;;;;;25.73;24.13;;;;;;;;;;5034590;28;20470;-96
2021/08/12 06:10:15;;;;;;;24.20;22.70;;;;;;;;;;5034903;28;20444;-96
2021/08/12 06:12:44;;;;;;;25.50;23.93;;;;;;;;;;5036976;28;20474;-96
2021/08/12 06:15:12;;;;;;;24.70;23.13;;;;;;;;;;5034214;28;20426;-92
2021/08/12 06:17:39;;;;;;;24.33;22.50;;;;;;;;;;5035982;28;20881;-91
2021/08/12 06:20:07;;;;;;;24.83;23.33;;;;;;;;;;5035274;28;20448;-95
2021/08/12 06:22:34;;;;;;;24.03;22.53;;;;;;;;;;5035603;28;20447;-94
2021/08/12 06:25:02;;;;;;;26.43;24.57;;;;;;;;;;5034529;28;20420;-94
2021/08/12 06:27:29;;;;;;;25.70;23.90;;;;;;;;;;5034328;28;20769;-96
2021/08/12 06:29:58;;;;;;;24.87;23.27;;;;;;;;;;5016952;28;20766;-95
2021/08/12 06:32:27;;;;;;;25.10;23.50;;;;;;;;;;5034148;28;20465;-96
2021/08/12 06:34:55;;;;;;;24.90;23.30;;;;;;;;;;5034656;28;20445;-93
2021/08/12 06:37:23;;;;;;;24.00;22.40;;;;;;;;;;5033948;28;21028;-93
2021/08/12 06:39:51;;;;;;;26.27;24.27;;;;;;;;;;5034156;28;20441;-93
2021/08/12 06:42:18;;;;;;;25.67;24.07;;;;;;;;;;5034234;28;20414;-96
2021/08/12 06:44:46;;;;;;;26.27;24.57;;;;;;;;;;5019604;28;20419;-96
2021/08/12 06:47:15;;;;;;;25.80;24.07;;;;;;;;;;5037875;28;20421;-96
2021/08/12 06:49:43;;;;;;;26.03;24.30;;;;;;;;;;5038170;28;20418;-96
2021/08/12 06:52:10;;;;;;;25.33;23.80;;;;;;;;;;5038054;28;20483;-95
2021/08/12 06:54:37;;;;;;;24.00;22.60;;;;;;;;;;5038088;28;20410;-95
2021/08/12 06:57:05;;;;;;;24.60;23.10;;;;;;;;;;5039100;28;20902;-96
2021/08/12 06:59:33;;;;;;;25.90;24.30;;;;;;;;;;5020653;28;20449;-94
2021/08/12 07:02:00;;;;;;;25.30;23.63;;;;;;;;;;5037958;28;20505;-95
2021/08/12 07:04:29;;;;;;;24.80;23.20;;;;;;;;;;5037827;28;20424;-94
2021/08/12 07:06:56;;;;;;;24.90;23.30;;;;;;;;;;5020317;28;20431;-94
2021/08/12 07:09:24;;;;;;;26.00;24.30;;;;;;;;;;5037769;28;20920;-94
2021/08/12 07:11:52;;;;;;;25.20;23.50;;;;;;;;;;5036307;28;20959;-93
2021/08/12 07:14:19;;;;;;;25.00;23.47;;;;;;;;;;5037651;28;20447;-95
2021/08/12 07:16:47;;;;;;;26.40;24.80;;;;;;;;;;5037412;28;20412;-94
2021/08/12 07:19:14;;;;;;;25.33;23.73;;;;;;;;;;5037572;28;20434;-95
2021/08/12 07:21:43;;;;;;;26.43;24.47;;;;;;;;;;5037705;28;20463;-95
2021/08/12 07:24:11;;;;;;;24.70;23.10;;;;;;;;;;5038335;28;20423;-95
2021/08/12 07:26:41;;;;;;;25.03;23.43;;;;;;;;;;5037473;28;20443;-95
2021/08/12 07:29:08;;;;;;;25.27;23.67;;;;;;;;;;5038757;28;20415;-92
2021/08/12 07:31:36;;;;;;;25.40;23.80;;;;;;;;;;5025122;28;20436;-96
2021/08/12 07:34:08;;;;;;;26.00;24.20;;;;;;;;;;5042342;28;20985;-92
2021/08/12 07:36:37;;;;;;;25.83;23.93;;;;;;;;;;5049791;28;20472;-91
2021/08/12 07:39:07;;;;;;;25.60;23.90;;;;;;;;;;5037338;28;20474;-96
2021/08/12 07:41:35;;;;;;;24.30;22.77;;;;;;;;;;5021150;28;20478;-92
2021/08/12 07:44:02;;;;;;;25.07;23.53;;;;;;;;;;5038363;28;20877;-90
2021/08/12 07:46:30;;;;;;;24.60;23.20;;;;;;;;;;5037161;28;20433;-90
2021/08/12 07:48:57;;;;;;;26.33;24.53;;;;;;;;;;5044598;28;20448;-92
2021/08/12 07:51:24;;;;;;;24.93;23.40;;;;;;;;;;5019357;28;20427;-95
2021/08/12 07:53:54;;;;;;;25.00;23.40;;;;;;;;;;5039027;28;20460;-96
2021/08/12 07:56:23;;;;;;;23.87;22.47;;;;;;;;;;5037218;28;20795;-96
2021/08/12 07:58:51;;;;;;;24.27;22.77;;;;;;;;;;5038109;28;20416;-96
2021/08/12 08:01:19;;;;;;;23.80;22.40;;;;;;;;;;5019380;28;20466;-96
2021/08/12 08:03:46;;;;;;;23.97;22.57;;;;;;;;;;5037864;28;20531;-96
2021/08/12 08:06:14;;;;;;;23.93;22.43;;;;;;;;;;5038098;28;20445;-96
2021/08/12 08:08:42;;;;;;;24.30;22.47;;;;;;;;;;5038148;28;20481;-96
2021/08/12 08:11:09;;;;;;;24.70;23.30;;;;;;;;;;5035877;28;20817;-96
2021/08/12 08:13:38;;;;;;;23.80;22.30;;;;;;;;;;5036459;28;20488;-95
2021/08/12 08:16:06;;;;;;;26.07;24.37;;;;;;;;;;5036726;28;20420;-96
2021/08/12 08:18:33;;;;;;;26.97;25.03;;;;;;;;;;5036639;28;20455;-94
2021/08/12 08:21:00;;;;;;;25.87;24.20;;;;;;;;;;5036465;28;20500;-96
2021/08/12 08:23:28;;;;;;;25.83;24.03;;;;;;;;;;5036502;28;20466;-96
2021/08/12 08:25:55;;;;;;;24.97;23.47;;;;;;;;;;5038191;28;20447;-92
2021/08/12 08:28:23;;;;;;;24.17;22.77;;;;;;;;;;5036549;28;20412;-96
2021/08/12 08:30:52;;;;;;;24.93;23.43;;;;;;;;;;5036912;28;20434;-96
2021/08/12 08:33:19;;;;;;;24.90;23.30;;;;;;;;;;5036471;28;20488;-92
2021/08/12 08:35:46;;;;;;;25.93;24.30;;;;;;;;;;5037386;28;20834;-96
2021/08/12 08:38:14;;;;;;;25.30;23.70;;;;;;;;;;5037749;28;20410;-96
2021/08/12 08:40:41;;;;;;;25.40;23.67;;;;;;;;;;5036967;28;20432;-95
2021/08/12 08:43:09;;;;;;;24.67;23.07;;;;;;;;;;5036272;28;20951;-96
2021/08/12 08:45:38;;;;;;;26.43;24.73;;;;;;;;;;5037364;28;20922;-96
2021/08/12 08:48:10;;;;;;;27.60;25.70;;;;;;;;;;5038187;28;20461;-92
2021/08/12 08:50:39;;;;;;;27.60;25.40;;;;;;;;;;5035808;28;20427;-96
2021/08/12 08:53:07;;;;;;;25.73;24.10;;;;;;;;;;5036685;28;20462;-93
2021/08/12 08:55:34;;;;;;;26.30;24.50;;;;;;;;;;5039738;28;20435;-96
2021/08/12 08:58:03;;;;;;;26.70;24.90;;;;;;;;;;5361610;22;20502;-96
2021/08/12 09:00:30;;;;;;;25.70;23.90;;;;;;;;;;5056256;28;20423;-87
2021/08/12 09:02:58;;;;;;;26.13;24.50;;;;;;;;;;5055059;28;20439;-94
2021/08/12 09:05:26;;;;;;;26.67;24.87;;;;;;;;;;5038703;28;20449;-90
2021/08/12 09:07:54;;;;;;;26.33;24.63;;;;;;;;;;5055171;28;20468;-92
2021/08/12 09:10:21;;;;;;;26.20;24.40;;;;;;;;;;5056052;28;20921;-93
2021/08/12 09:12:49;;;;;;;27.00;25.30;;;;;;;;;;5055636;28;20447;-93
2021/08/12 09:15:20;;;;;;;27.93;25.73;;;;;;;;;;5055569;28;20411;-93
2021/08/12 09:17:47;;;;;;;27.33;25.43;;;;;;;;;;5054929;28;20435;-93
2021/08/12 09:20:16;;;;;;;24.60;23.13;;;;;;;;;;5055777;28;20426;-89
2021/08/12 09:22:50;;;;;;;26.20;24.60;;;;;;;;;;5055531;28;20505;-93
2021/08/12 09:25:18;;;;;;;25.80;24.13;;;;;;;;;;5055393;28;21300;-92
2021/08/12 09:27:45;;;;;;;24.90;23.27;;;;;;;;;;5055121;28;20445;-92
2021/08/12 09:30:14;;;;;;;27.67;25.73;;;;;;;;;;5054918;28;20444;-93
2021/08/12 09:32:46;;;;;;;26.73;25.03;;;;;;;;;;5055126;28;20472;-93
2021/08/12 09:35:13;;;;;;;26.30;24.70;;;;;;;;;;5055392;28;20438;-90
2021/08/12 09:37:41;;;;;;;28.40;26.53;;;;;;;;;;5054940;28;20920;-89
2021/08/12 09:40:14;;;;;;;25.40;23.80;;;;;;;;;;5055005;28;20419;-90
2021/08/12 09:42:58;;;;;;;26.90;25.10;;;;;;;;;;5054737;28;20489;-90
2021/08/12 09:45:26;;;;;;;24.83;23.37;;;;;;;;;;5054822;28;20424;-90
2021/08/12 09:47:54;;;;;;;26.50;24.90;;;;;;;;;;5054901;28;20491;-92
2021/08/12 09:50:24;;;;;;;25.87;24.27;;;;;;;;;;5054828;28;20445;-91
2021/08/12 09:52:52;;;;;;;25.23;23.63;;;;;;;;;;5054607;28;20454;-91
2021/08/12 09:55:22;;;;;;;26.30;24.67;;;;;;;;;;5054974;28;20519;-91
2021/08/12 09:57:51;;;;;;;31.40;29.23;;;;;;;;;;5054012;28;20442;-91
2021/08/12 10:00:31;;;;;;;28.27;26.47;;;;;;;;;;5054797;28;20408;-91
2021/08/12 10:02:59;;;;;;;25.77;23.77;;;;;;;;;;5054468;28;20441;-91
2021/08/12 10:05:27;;;;;;;26.80;25.00;;;;;;;;;;5063152;28;20437;-94
2021/08/12 10:07:55;;;;;;;27.37;25.67;;;;;;;;;;5049460;28;20465;-96
2021/08/12 10:10:27;;;;;;;26.40;24.10;;;;;;;;;;5063773;28;20404;-97
2021/08/12 10:12:56;;;;;;;26.00;24.30;;;;;;;;;;5039894;28;20531;-90
2021/08/12 10:15:25;;;;;;;26.87;25.07;;;;;;;;;;5054738;28;20524;-92
2021/08/12 10:17:54;;;;;;;28.57;26.50;;;;;;;;;;5036527;28;20445;-84
2021/08/12 10:20:23;;;;;;;29.63;27.20;;;;;;;;;;5054945;28;20431;-95
2021/08/12 10:22:51;;;;;;;26.03;24.23;;;;;;;;;;5059973;28;20496;-95
2021/08/12 10:25:20;;;;;;;27.17;25.37;;;;;;;;;;5392651;22;20481;-93
2021/08/12 10:27:50;;;;;;;27.57;25.57;;;;;;;;;;5054727;28;20460;-96
2021/08/12 10:30:25;;;;;;;25.80;24.20;;;;;;;;;;5042310;28;20463;-96
2021/08/12 10:33:05;;;;;;;26.73;25.03;;;;;;;;;;5054587;28;20412;-96
2021/08/12 10:35:34;;;;;;;24.17;22.70;;;;;;;;;;5211110;22;21065;-87
2021/08/12 10:38:03;;;;;;;24.87;23.27;;;;;;;;;;5033821;28;20943;-87
2021/08/12 10:40:31;;;;;;;24.80;23.10;;;;;;;;;;5033741;28;20443;-87
2021/08/12 10:43:00;;;;;;;25.53;23.83;;;;;;;;;;5033606;28;20417;-86
2021/08/12 10:45:29;;;;;;;25.30;23.70;;;;;;;;;;5034051;28;20422;-90
2021/08/12 10:47:57;;;;;;;26.83;25.13;;;;;;;;;;5042092;28;20447;-92
2021/08/12 10:50:35;;;;;;;26.17;24.37;;;;;;;;;;5041140;28;20777;-96
2021/08/12 10:53:19;;;;;;;26.30;24.53;;;;;;;;;;5036528;28;20516;-96
2021/08/12 10:56:03;;;;;;;25.70;24.00;;;;;;;;;;5033917;28;20454;-96
2021/08/12 10:58:51;;;;;;;27.00;25.20;;;;;;;;;;5017419;28;20448;-92
2021/08/12 11:01:33;;;;;;;25.47;23.80;;;;;;;;;;5030772;28;20429;-95
2021/08/12 11:04:05;;;;;;;26.23;24.50;;;;;;;;;;5033371;28;20447;-94
2021/08/12 11:06:37;;;;;;;27.37;25.40;;;;;;;;;;5016607;28;20426;-94
2021/08/12 11:09:05;;;;;;;26.07;24.43;;;;;;;;;;5033937;28;20434;-94
2021/08/12 11:11:51;;;;;;;27.50;25.60;;;;;;;;;;5034286;28;20436;-96
2021/08/12 11:14:39;;;;;;;27.57;25.77;;;;;;;;;;5033966;28;20966;-96
2021/08/12 11:17:08;;;;;;;29.23;27.13;;;;;;;;;;5033678;28;20432;-96
2021/08/12 11:19:36;;;;;;;28.60;26.80;;;;;;;;;;5033925;28;20804;-96
2021/08/12 11:22:04;;;;;;;27.50;25.70;;;;;;;;;;5016801;28;20863;-96
2021/08/12 11:24:52;;;;;;;28.57;26.37;;;;;;;;;;5033976;28;20409;-95
2021/08/12 11:27:33;;;;;;;27.10;25.37;;;;;;;;;;5029934;28;20437;-95
2021/08/12 11:30:16;;;;;;;26.10;24.40;;;;;;;;;;5035198;28;20420;-90
2021/08/12 11:32:58;;;;;;;26.90;25.20;;;;;;;;;;5036811;28;20466;-94
2021/08/12 11:35:27;;;;;;;28.23;26.27;;;;;;;;;;5036461;28;20468;-94
2021/08/12 11:37:55;;;;;;;26.43;24.77;;;;;;;;;;5037119;28;20444;-94
2021/08/12 11:40:28;;;;;;;27.80;26.10;;;;;;;;;;5037044;28;20432;-95
2021/08/12 11:42:56;;;;;;;28.33;26.53;;;;;;;;;;5003456;28;20936;-94
2021/08/12 11:45:25;;;;;;;26.50;24.77;;;;;;;;;;5037629;28;20414;-94
2021/08/12 11:47:55;;;;;;;29.10;27.20;;;;;;;;;;5037059;28;20919;-93
2021/08/12 11:50:26;;;;;;;26.53;25.03;;;;;;;;;;5019570;28;20959;-93
2021/08/12 11:52:55;;;;;;;26.17;24.57;;;;;;;;;;5037031;28;20414;-93
2021/08/12 11:55:24;;;;;;;26.90;25.27;;;;;;;;;;5036784;28;20489;-93
2021/08/12 11:57:51;;;;;;;27.97;25.97;;;;;;;;;;5036621;28;20445;-94
2021/08/12 12:00:20;;;;;;;26.60;25.00;;;;;;;;;;5036546;28;20884;-93
2021/08/12 12:02:51;;;;;;;26.63;25.03;;;;;;;;;;5036828;28;20438;-94
2021/08/12 12:05:18;;;;;;;25.50;23.90;;;;;;;;;;5037348;28;20783;-93
2021/08/12 12:07:46;;;;;;;25.60;23.90;;;;;;;;;;5036515;28;20561;-94
2021/08/12 12:10:23;;;;;;;25.50;23.53;;;;;;;;;;5036372;28;20417;-94
2021/08/12 12:12:50;;;;;;;25.33;23.73;;;;;;;;;;5036635;28;20410;-94
2021/08/12 12:15:30;;;;;;;26.43;24.83;;;;;;;;;;5036549;28;20485;-93
2021/08/12 12:17:57;;;;;;;28.30;26.27;;;;;;;;;;5037686;28;20440;-94
2021/08/12 12:20:26;;;;;;;27.70;26.00;;;;;;;;;;5036102;28;20825;-83
2021/08/12 12:22:57;;;;;;;27.53;25.83;;;;;;;;;;5037930;28;20557;-88
2021/08/12 12:25:26;;;;;;;25.53;23.93;;;;;;;;;;5019166;28;20506;-88
2021/08/12 12:27:56;;;;;;;25.30;23.80;;;;;;;;;;5036372;28;20436;-89
2021/08/12 12:30:24;;;;;;;24.80;23.30;;;;;;;;;;5037292;28;20462;-89
2021/08/12 12:32:57;;;;;;;26.67;24.87;;;;;;;;;;5035904;28;20809;-90
2021/08/12 12:35:25;;;;;;;25.57;24.07;;;;;;;;;;5035653;28;20504;-90
2021/08/12 12:37:53;;;;;;;26.30;24.70;;;;;;;;;;5036001;28;20421;-89
2021/08/12 12:40:21;;;;;;;26.73;25.03;;;;;;;;;;5036077;28;20414;-89
2021/08/12 12:42:53;;;;;;;26.20;24.60;;;;;;;;;;5035390;28;20415;-90
2021/08/12 12:45:20;;;;;;;25.40;24.00;;;;;;;;;;5035789;28;20535;-91
2021/08/12 12:47:48;;;;;;;25.60;23.70;;;;;;;;;;5035554;28;20884;-90
2021/08/12 12:50:16;;;;;;;25.20;23.60;;;;;;;;;;5035476;28;20414;-91
2021/08/12 12:52:54;;;;;;;24.90;23.40;;;;;;;;;;5035943;28;20412;-92
2021/08/12 12:55:22;;;;;;;25.67;23.97;;;;;;;;;;5035737;28;20492;-91
2021/08/12 12:57:50;;;;;;;26.30;24.60;;;;;;;;;;5036142;28;20826;-92
2021/08/12 13:00:34;;;;;;;26.40;24.53;;;;;;;;;;5113164;27;20558;-91
2021/08/12 13:03:02;;;;;;;25.40;23.80;;;;;;;;;;5112681;28;20439;-91
2021/08/12 13:05:48;;;;;;;26.30;24.60;;;;;;;;;;5113516;28;20770;-90
2021/08/12 13:08:15;;;;;;;26.17;24.63;;;;;;;;;;5112062;28;20473;-90
2021/08/12 13:10:43;;;;;;;24.10;22.63;;;;;;;;;;5111902;28;20908;-90
2021/08/12 13:13:10;;;;;;;24.37;22.87;;;;;;;;;;5112470;28;20422;-90
2021/08/12 13:15:39;;;;;;;25.70;24.10;;;;;;;;;;5112223;28;20409;-91
2021/08/12 13:18:07;;;;;;;24.30;22.90;;;;;;;;;;5111724;28;20433;-91
2021/08/12 13:20:41;;;;;;;24.50;23.00;;;;;;;;;;5112733;28;20423;-90
2021/08/12 13:23:09;;;;;;;25.37;23.77;;;;;;;;;;5112056;28;20408;-90
2021/08/12 13:25:36;;;;;;;25.03;23.63;;;;;;;;;;5094445;28;20428;-90
2021/08/12 13:28:04;;;;;;;26.00;24.30;;;;;;;;;;5111661;28;20415;-90
2021/08/12 13:30:33;;;;;;;25.03;23.43;;;;;;;;;;5112369;28;20452;-90
2021/08/12 13:33:03;;;;;;;25.77;24.10;;;;;;;;;;5111603;28;20434;-90
2021/08/12 13:35:30;;;;;;;26.20;24.50;;;;;;;;;;5111542;28;20510;-90
2021/08/12 13:37:58;;;;;;;25.53;24.03;;;;;;;;;;5111804;28;20406;-90
2021/08/12 13:40:25;;;;;;;25.83;24.13;;;;;;;;;;5111700;28;20482;-90
2021/08/12 13:42:52;;;;;;;26.97;25.27;;;;;;;;;;5111713;27;20427;-90
2021/08/12 13:45:20;;;;;;;26.53;24.60;;;;;;;;;;5111644;27;20427;-90
2021/08/12 13:47:48;;;;;;;26.37;24.57;;;;;;;;;;5110488;28;20415;-90
2021/08/12 13:50:16;;;;;;;25.03;23.43;;;;;;;;;;5111252;28;20883;-92
2021/08/12 13:52:44;;;;;;;26.13;24.30;;;;;;;;;;5111429;28;20436;-91
2021/08/12 13:55:11;;;;;;;25.23;23.60;;;;;;;;;;5109109;28;20438;-91
2021/08/12 13:57:39;;;;;;;25.93;23.97;;;;;;;;;;5111420;28;20904;-91
2021/08/12 14:00:07;;;;;;;26.50;24.63;;;;;;;;;;5111353;28;20476;-91
2021/08/12 14:02:35;;;;;;;25.40;23.80;;;;;;;;;;5112647;28;20956;-91
2021/08/12 14:05:02;;;;;;;25.13;23.53;;;;;;;;;;5111895;27;20457;-91
2021/08/12 14:07:31;;;;;;;26.53;24.83;;;;;;;;;;5111536;27;20472;-91
2021/08/12 14:09:58;;;;;;;25.80;24.20;;;;;;;;;;5107932;28;20408;-92
2021/08/12 14:12:25;;;;;;;25.90;24.20;;;;;;;;;;5097558;28;20421;-91
2021/08/12 14:14:53;;;;;;;26.43;24.37;;;;;;;;;;5097196;28;20405;-92
2021/08/12 14:17:20;;;;;;;25.97;24.17;;;;;;;;;;5079654;28;20455;-91
2021/08/12 14:19:48;;;;;;;26.73;24.93;;;;;;;;;;5096313;28;20477;-92
2021/08/12 14:22:15;;;;;;;26.77;24.80;;;;;;;;;;5097037;28;20443;-92
2021/08/12 14:24:44;;;;;;;26.27;24.57;;;;;;;;;;5096213;28;20444;-92
2021/08/12 14:27:11;;;;;;;25.13;23.27;;;;;;;;;;5096998;28;20405;-90